sensor_id;sensor_type;location;lat;lon;timestamp;P1;P2;P0
80838;PMS5003;70253;50.262;-5.062;2023-07-13T00:01:42;0;0;
80838;PMS5003;70253;50.262;-5.062;2023-07-13T00:04:08;1;1;
80838;PMS5003;70253;50.262;-5.062;2023-07-13T00:06:33;0;0;
80838;PMS5003;70253;50.262;-5.062;2023-07-13T00:08:58;0;0;
80838;PMS5003;70253;50.262;-5.062;2023-07-13T00:11:24;0;0;
80838;PMS5003;70253;50.262;-5.062;2023-07-13T00:13:49;0;0;
80838;PMS5003;70253;50.262;-5.062;2023-07-13T00:16:14;0;0;
80838;PMS5003;70253;50.262;-5.062;2023-07-13T00:18:40;0;0;
80838;PMS5003;70253;50.262;-5.062;2023-07-13T00:21:05;1;1;
80838;PMS5003;70253;50.262;-5.062;2023-07-13T00:23:30;0;0;
80838;PMS5003;70253;50.262;-5.062;2023-07-13T00:25:56;1;1;
80838;PMS5003;70253;50.262;-5.062;2023-07-13T00:28:21;0;0;
80838;PMS5003;70253;50.262;-5.062;2023-07-13T00:30:47;0;0;
80838;PMS5003;70253;50.262;-5.062;2023-07-13T00:33:12;0;0;
80838;PMS5003;70253;50.262;-5.062;2023-07-13T00:35:37;0;0;
80838;PMS5003;70253;50.262;-5.062;2023-07-13T00:38:03;0;0;
80838;PMS5003;70253;50.262;-5.062;2023-07-13T00:40:28;1;1;
80838;PMS5003;70253;50.262;-5.062;2023-07-13T00:42:56;0;0;
80838;PMS5003;70253;50.262;-5.062;2023-07-13T00:47:44;1;1;
80838;PMS5003;70253;50.262;-5.062;2023-07-13T00:50:10;1;1;
80838;PMS5003;70253;50.262;-5.062;2023-07-13T00:52:36;0;0;
80838;PMS5003;70253;50.262;-5.062;2023-07-13T00:55:00;0;0;
80838;PMS5003;70253;50.262;-5.062;2023-07-13T00:57:26;0;0;
80838;PMS5003;70253;50.262;-5.062;2023-07-13T00:59:53;1;1;
80838;PMS5003;70253;50.262;-5.062;2023-07-13T01:02:16;0;0;
80838;PMS5003;70253;50.262;-5.062;2023-07-13T01:04:42;0;0;
80838;PMS5003;70253;50.262;-5.062;2023-07-13T01:07:07;1;1;
80838;PMS5003;70253;50.262;-5.062;2023-07-13T01:09:33;0;0;
80838;PMS5003;70253;50.262;-5.062;2023-07-13T01:11:58;0;0;
80838;PMS5003;70253;50.262;-5.062;2023-07-13T01:14:23;0;0;
80838;PMS5003;70253;50.262;-5.062;2023-07-13T01:16:49;0;0;
80838;PMS5003;70253;50.262;-5.062;2023-07-13T01:19:20;0;0;
80838;PMS5003;70253;50.262;-5.062;2023-07-13T01:21:39;0;0;
80838;PMS5003;70253;50.262;-5.062;2023-07-13T01:24:05;0;0;
80838;PMS5003;70253;50.262;-5.062;2023-07-13T01:26:30;0;0;
80838;PMS5003;70253;50.262;-5.062;2023-07-13T01:28:55;0;0;
80838;PMS5003;70253;50.262;-5.062;2023-07-13T01:31:21;1;1;
80838;PMS5003;70253;50.262;-5.062;2023-07-13T01:33:46;0;0;
80838;PMS5003;70253;50.262;-5.062;2023-07-13T01:36:11;0;0;
80838;PMS5003;70253;50.262;-5.062;2023-07-13T01:38:37;1;1;
80838;PMS5003;70253;50.262;-5.062;2023-07-13T01:41:02;0;0;
80838;PMS5003;70253;50.262;-5.062;2023-07-13T01:43:28;0;0;
80838;PMS5003;70253;50.262;-5.062;2023-07-13T01:45:53;0;0;
80838;PMS5003;70253;50.262;-5.062;2023-07-13T01:48:18;0;0;
80838;PMS5003;70253;50.262;-5.062;2023-07-13T01:50:44;1;1;
80838;PMS5003;70253;50.262;-5.062;2023-07-13T01:53:09;0;0;
80838;PMS5003;70253;50.262;-5.062;2023-07-13T01:55:35;0;0;
80838;PMS5003;70253;50.262;-5.062;2023-07-13T01:58:00;1;1;
80838;PMS5003;70253;50.262;-5.062;2023-07-13T02:00:25;1;1;
80838;PMS5003;70253;50.262;-5.062;2023-07-13T02:02:51;0;0;
80838;PMS5003;70253;50.262;-5.062;2023-07-13T02:05:16;0;0;
80838;PMS5003;70253;50.262;-5.062;2023-07-13T02:07:41;0;0;
80838;PMS5003;70253;50.262;-5.062;2023-07-13T02:10:08;1;1;
80838;PMS5003;70253;50.262;-5.062;2023-07-13T02:12:32;0;0;
80838;PMS5003;70253;50.262;-5.062;2023-07-13T02:14:57;1;1;
80838;PMS5003;70253;50.262;-5.062;2023-07-13T02:17:23;1;1;
80838;PMS5003;70253;50.262;-5.062;2023-07-13T02:19:48;1;1;
80838;PMS5003;70253;50.262;-5.062;2023-07-13T02:22:14;0;0;
80838;PMS5003;70253;50.262;-5.062;2023-07-13T02:24:39;1;0;
80838;PMS5003;70253;50.262;-5.062;2023-07-13T02:27:05;0;0;
80838;PMS5003;70253;50.262;-5.062;2023-07-13T02:29:30;0;0;
80838;PMS5003;70253;50.262;-5.062;2023-07-13T02:31:55;0;0;
80838;PMS5003;70253;50.262;-5.062;2023-07-13T02:34:21;0;0;
80838;PMS5003;70253;50.262;-5.062;2023-07-13T02:36:46;0;0;
80838;PMS5003;70253;50.262;-5.062;2023-07-13T02:39:11;1;1;
80838;PMS5003;70253;50.262;-5.062;2023-07-13T02:41:36;0;0;
80838;PMS5003;70253;50.262;-5.062;2023-07-13T02:44:02;0;0;
80838;PMS5003;70253;50.262;-5.062;2023-07-13T02:46:27;1;1;
80838;PMS5003;70253;50.262;-5.062;2023-07-13T02:48:53;0;0;
80838;PMS5003;70253;50.262;-5.062;2023-07-13T02:51:18;0;0;
80838;PMS5003;70253;50.262;-5.062;2023-07-13T02:53:43;0;0;
80838;PMS5003;70253;50.262;-5.062;2023-07-13T02:56:09;0;0;
80838;PMS5003;70253;50.262;-5.062;2023-07-13T02:58:34;1;1;
80838;PMS5003;70253;50.262;-5.062;2023-07-13T03:00:59;0;0;
80838;PMS5003;70253;50.262;-5.062;2023-07-13T03:03:25;0;0;
80838;PMS5003;70253;50.262;-5.062;2023-07-13T03:05:57;1;1;
80838;PMS5003;70253;50.262;-5.062;2023-07-13T03:08:15;1;1;
80838;PMS5003;70253;50.262;-5.062;2023-07-13T03:10:41;1;1;
80838;PMS5003;70253;50.262;-5.062;2023-07-13T03:13:06;1;1;
80838;PMS5003;70253;50.262;-5.062;2023-07-13T03:15:32;0;0;
80838;PMS5003;70253;50.262;-5.062;2023-07-13T03:17:57;0;0;
80838;PMS5003;70253;50.262;-5.062;2023-07-13T03:20:22;0;0;
80838;PMS5003;70253;50.262;-5.062;2023-07-13T03:22:48;0;0;
80838;PMS5003;70253;50.262;-5.062;2023-07-13T03:25:13;0;0;
80838;PMS5003;70253;50.262;-5.062;2023-07-13T03:27:39;1;1;
80838;PMS5003;70253;50.262;-5.062;2023-07-13T03:30:05;0;0;
80838;PMS5003;70253;50.262;-5.062;2023-07-13T03:32:29;0;0;
80838;PMS5003;70253;50.262;-5.062;2023-07-13T03:34:55;1;0;
80838;PMS5003;70253;50.262;-5.062;2023-07-13T03:37:20;0;0;
80838;PMS5003;70253;50.262;-5.062;2023-07-13T03:39:46;0;0;
80838;PMS5003;70253;50.262;-5.062;2023-07-13T03:42:11;0;0;
80838;PMS5003;70253;50.262;-5.062;2023-07-13T03:44:36;0;0;
80838;PMS5003;70253;50.262;-5.062;2023-07-13T03:47:02;0;0;
80838;PMS5003;70253;50.262;-5.062;2023-07-13T03:49:27;1;1;
80838;PMS5003;70253;50.262;-5.062;2023-07-13T03:51:52;0;0;
80838;PMS5003;70253;50.262;-5.062;2023-07-13T03:54:18;0;0;
80838;PMS5003;70253;50.262;-5.062;2023-07-13T03:56:43;0;0;
80838;PMS5003;70253;50.262;-5.062;2023-07-13T03:59:08;0;0;
80838;PMS5003;70253;50.262;-5.062;2023-07-13T04:01:34;0;0;
80838;PMS5003;70253;50.262;-5.062;2023-07-13T04:03:59;1;0;
80838;PMS5003;70253;50.262;-5.062;2023-07-13T04:06:26;0;0;
80838;PMS5003;70253;50.262;-5.062;2023-07-13T04:08:50;0;0;
80838;PMS5003;70253;50.262;-5.062;2023-07-13T04:11:15;0;0;
80838;PMS5003;70253;50.262;-5.062;2023-07-13T04:13:40;0;0;
80838;PMS5003;70253;50.262;-5.062;2023-07-13T04:16:06;0;0;
80838;PMS5003;70253;50.262;-5.062;2023-07-13T04:18:31;0;0;
80838;PMS5003;70253;50.262;-5.062;2023-07-13T04:20:56;0;0;
80838;PMS5003;70253;50.262;-5.062;2023-07-13T04:23:22;0;0;
80838;PMS5003;70253;50.262;-5.062;2023-07-13T04:25:48;0;0;
80838;PMS5003;70253;50.262;-5.062;2023-07-13T04:28:13;0;0;
80838;PMS5003;70253;50.262;-5.062;2023-07-13T04:30:38;0;0;
80838;PMS5003;70253;50.262;-5.062;2023-07-13T04:33:03;0;0;
80838;PMS5003;70253;50.262;-5.062;2023-07-13T04:35:29;0;0;
80838;PMS5003;70253;50.262;-5.062;2023-07-13T04:37:54;0;0;
80838;PMS5003;70253;50.262;-5.062;2023-07-13T04:40:20;0;0;
80838;PMS5003;70253;50.262;-5.062;2023-07-13T04:42:45;0;0;
80838;PMS5003;70253;50.262;-5.062;2023-07-13T04:45:11;0;0;
80838;PMS5003;70253;50.262;-5.062;2023-07-13T04:47:36;0;0;
80838;PMS5003;70253;50.262;-5.062;2023-07-13T04:50:01;1;1;
80838;PMS5003;70253;50.262;-5.062;2023-07-13T04:52:26;0;0;
80838;PMS5003;70253;50.262;-5.062;2023-07-13T04:54:52;1;1;
80838;PMS5003;70253;50.262;-5.062;2023-07-13T04:57:17;1;1;
80838;PMS5003;70253;50.262;-5.062;2023-07-13T04:59:42;0;0;
80838;PMS5003;70253;50.262;-5.062;2023-07-13T05:02:08;0;0;
80838;PMS5003;70253;50.262;-5.062;2023-07-13T05:04:33;0;0;
80838;PMS5003;70253;50.262;-5.062;2023-07-13T05:06:59;0;0;
80838;PMS5003;70253;50.262;-5.062;2023-07-13T05:09:24;0;0;
80838;PMS5003;70253;50.262;-5.062;2023-07-13T05:11:49;1;1;
80838;PMS5003;70253;50.262;-5.062;2023-07-13T05:14:15;0;0;
80838;PMS5003;70253;50.262;-5.062;2023-07-13T05:16:40;1;1;
80838;PMS5003;70253;50.262;-5.062;2023-07-13T05:19:06;1;1;
80838;PMS5003;70253;50.262;-5.062;2023-07-13T05:21:31;0;0;
80838;PMS5003;70253;50.262;-5.062;2023-07-13T05:23:56;0;0;
80838;PMS5003;70253;50.262;-5.062;2023-07-13T05:26:22;1;1;
80838;PMS5003;70253;50.262;-5.062;2023-07-13T05:28:47;0;0;
80838;PMS5003;70253;50.262;-5.062;2023-07-13T05:31:12;0;0;
80838;PMS5003;70253;50.262;-5.062;2023-07-13T05:33:38;0;0;
80838;PMS5003;70253;50.262;-5.062;2023-07-13T05:36:03;2;2;
80838;PMS5003;70253;50.262;-5.062;2023-07-13T05:38:29;1;1;
80838;PMS5003;70253;50.262;-5.062;2023-07-13T05:40:54;1;1;
80838;PMS5003;70253;50.262;-5.062;2023-07-13T05:43:19;0;0;
80838;PMS5003;70253;50.262;-5.062;2023-07-13T05:45:45;2;1;
80838;PMS5003;70253;50.262;-5.062;2023-07-13T05:48:10;0;0;
80838;PMS5003;70253;50.262;-5.062;2023-07-13T05:50:35;2;1;
80838;PMS5003;70253;50.262;-5.062;2023-07-13T05:53:01;1;1;
80838;PMS5003;70253;50.262;-5.062;2023-07-13T05:55:26;1;1;
80838;PMS5003;70253;50.262;-5.062;2023-07-13T05:57:51;2;2;
80838;PMS5003;70253;50.262;-5.062;2023-07-13T06:00:17;1;1;
80838;PMS5003;70253;50.262;-5.062;2023-07-13T06:02:42;1;1;
80838;PMS5003;70253;50.262;-5.062;2023-07-13T06:05:08;1;1;
80838;PMS5003;70253;50.262;-5.062;2023-07-13T06:07:33;0;0;
80838;PMS5003;70253;50.262;-5.062;2023-07-13T06:09:58;0;0;
80838;PMS5003;70253;50.262;-5.062;2023-07-13T06:12:24;0;0;
80838;PMS5003;70253;50.262;-5.062;2023-07-13T06:14:49;1;1;
80838;PMS5003;70253;50.262;-5.062;2023-07-13T06:17:15;1;0;
80838;PMS5003;70253;50.262;-5.062;2023-07-13T06:19:40;1;1;
80838;PMS5003;70253;50.262;-5.062;2023-07-13T06:22:05;1;1;
80838;PMS5003;70253;50.262;-5.062;2023-07-13T06:24:31;1;1;
80838;PMS5003;70253;50.262;-5.062;2023-07-13T06:26:56;0;0;
80838;PMS5003;70253;50.262;-5.062;2023-07-13T06:29:21;1;1;
80838;PMS5003;70253;50.262;-5.062;2023-07-13T06:31:47;1;1;
80838;PMS5003;70253;50.262;-5.062;2023-07-13T06:34:12;1;1;
80838;PMS5003;70253;50.262;-5.062;2023-07-13T06:36:38;1;1;
80838;PMS5003;70253;50.262;-5.062;2023-07-13T06:39:03;1;0;
80838;PMS5003;70253;50.262;-5.062;2023-07-13T06:41:28;1;1;
80838;PMS5003;70253;50.262;-5.062;2023-07-13T06:43:54;1;1;
80838;PMS5003;70253;50.262;-5.062;2023-07-13T06:46:20;1;1;
80838;PMS5003;70253;50.262;-5.062;2023-07-13T06:48:45;1;1;
80838;PMS5003;70253;50.262;-5.062;2023-07-13T06:51:10;1;1;
80838;PMS5003;70253;50.262;-5.062;2023-07-13T06:53:35;1;1;
80838;PMS5003;70253;50.262;-5.062;2023-07-13T06:56:00;1;1;
80838;PMS5003;70253;50.262;-5.062;2023-07-13T06:58:26;1;1;
80838;PMS5003;70253;50.262;-5.062;2023-07-13T07:00:52;1;1;
80838;PMS5003;70253;50.262;-5.062;2023-07-13T07:03:17;0;0;
80838;PMS5003;70253;50.262;-5.062;2023-07-13T07:05:42;2;1;
80838;PMS5003;70253;50.262;-5.062;2023-07-13T07:08:08;1;0;
80838;PMS5003;70253;50.262;-5.062;2023-07-13T07:10:33;1;1;
80838;PMS5003;70253;50.262;-5.062;2023-07-13T07:12:58;1;1;
80838;PMS5003;70253;50.262;-5.062;2023-07-13T07:15:24;0;0;
80838;PMS5003;70253;50.262;-5.062;2023-07-13T07:17:49;0;0;
80838;PMS5003;70253;50.262;-5.062;2023-07-13T07:20:15;1;1;
80838;PMS5003;70253;50.262;-5.062;2023-07-13T07:22:40;1;1;
80838;PMS5003;70253;50.262;-5.062;2023-07-13T07:25:06;1;1;
80838;PMS5003;70253;50.262;-5.062;2023-07-13T07:27:31;1;1;
80838;PMS5003;70253;50.262;-5.062;2023-07-13T07:29:56;2;1;
80838;PMS5003;70253;50.262;-5.062;2023-07-13T07:32:22;1;1;
80838;PMS5003;70253;50.262;-5.062;2023-07-13T07:34:47;2;1;
80838;PMS5003;70253;50.262;-5.062;2023-07-13T07:37:13;1;1;
80838;PMS5003;70253;50.262;-5.062;2023-07-13T07:39:37;1;1;
80838;PMS5003;70253;50.262;-5.062;2023-07-13T07:42:03;2;1;
80838;PMS5003;70253;50.262;-5.062;2023-07-13T07:44:28;1;0;
80838;PMS5003;70253;50.262;-5.062;2023-07-13T07:46:54;1;1;
80838;PMS5003;70253;50.262;-5.062;2023-07-13T07:49:19;1;1;
80838;PMS5003;70253;50.262;-5.062;2023-07-13T07:51:45;1;1;
80838;PMS5003;70253;50.262;-5.062;2023-07-13T07:54:10;3;1;
80838;PMS5003;70253;50.262;-5.062;2023-07-13T07:56:35;1;0;
80838;PMS5003;70253;50.262;-5.062;2023-07-13T07:59:01;1;1;
80838;PMS5003;70253;50.262;-5.062;2023-07-13T08:01:26;2;2;
80838;PMS5003;70253;50.262;-5.062;2023-07-13T08:03:52;2;2;
80838;PMS5003;70253;50.262;-5.062;2023-07-13T08:06:17;2;1;
80838;PMS5003;70253;50.262;-5.062;2023-07-13T08:08:45;1;1;
80838;PMS5003;70253;50.262;-5.062;2023-07-13T08:11:09;1;1;
80838;PMS5003;70253;50.262;-5.062;2023-07-13T08:13:33;3;2;
80838;PMS5003;70253;50.262;-5.062;2023-07-13T08:15:58;3;2;
80838;PMS5003;70253;50.262;-5.062;2023-07-13T08:18:24;1;1;
80838;PMS5003;70253;50.262;-5.062;2023-07-13T08:20:49;1;1;
80838;PMS5003;70253;50.262;-5.062;2023-07-13T08:23:14;4;3;
80838;PMS5003;70253;50.262;-5.062;2023-07-13T08:25:40;2;2;
80838;PMS5003;70253;50.262;-5.062;2023-07-13T08:28:05;2;2;
80838;PMS5003;70253;50.262;-5.062;2023-07-13T08:30:30;4;3;
80838;PMS5003;70253;50.262;-5.062;2023-07-13T08:32:56;2;2;
80838;PMS5003;70253;50.262;-5.062;2023-07-13T08:35:21;2;2;
80838;PMS5003;70253;50.262;-5.062;2023-07-13T08:37:46;2;2;
80838;PMS5003;70253;50.262;-5.062;2023-07-13T08:40:12;2;1;
80838;PMS5003;70253;50.262;-5.062;2023-07-13T08:42:39;2;1;
80838;PMS5003;70253;50.262;-5.062;2023-07-13T08:45:08;3;3;
80838;PMS5003;70253;50.262;-5.062;2023-07-13T08:47:28;2;2;
80838;PMS5003;70253;50.262;-5.062;2023-07-13T08:49:53;5;4;
80838;PMS5003;70253;50.262;-5.062;2023-07-13T08:52:24;2;2;
80838;PMS5003;70253;50.262;-5.062;2023-07-13T08:54:45;3;3;
80838;PMS5003;70253;50.262;-5.062;2023-07-13T08:57:11;3;2;
80838;PMS5003;70253;50.262;-5.062;2023-07-13T08:59:35;4;4;
80838;PMS5003;70253;50.262;-5.062;2023-07-13T09:04:27;2;2;
80838;PMS5003;70253;50.262;-5.062;2023-07-13T09:06:58;2;1;
80838;PMS5003;70253;50.262;-5.062;2023-07-13T09:09:20;2;2;
80838;PMS5003;70253;50.262;-5.062;2023-07-13T09:11:45;5;4;
80838;PMS5003;70253;50.262;-5.062;2023-07-13T09:16:33;2;2;
80838;PMS5003;70253;50.262;-5.062;2023-07-13T09:18:59;2;2;
80838;PMS5003;70253;50.262;-5.062;2023-07-13T09:21:23;2;2;
80838;PMS5003;70253;50.262;-5.062;2023-07-13T09:23:48;0;0;
80838;PMS5003;70253;50.262;-5.062;2023-07-13T09:26:16;1;1;
80838;PMS5003;70253;50.262;-5.062;2023-07-13T09:28:40;3;3;
80838;PMS5003;70253;50.262;-5.062;2023-07-13T09:31:06;1;1;
80838;PMS5003;70253;50.262;-5.062;2023-07-13T09:33:30;2;2;
80838;PMS5003;70253;50.262;-5.062;2023-07-13T09:35:55;4;3;
80838;PMS5003;70253;50.262;-5.062;2023-07-13T09:38:21;2;2;
80838;PMS5003;70253;50.262;-5.062;2023-07-13T09:43:12;2;1;
80838;PMS5003;70253;50.262;-5.062;2023-07-13T09:45:37;2;2;
80838;PMS5003;70253;50.262;-5.062;2023-07-13T09:48:04;4;3;
80838;PMS5003;70253;50.262;-5.062;2023-07-13T09:50:28;2;2;
80838;PMS5003;70253;50.262;-5.062;2023-07-13T09:52:53;2;2;
80838;PMS5003;70253;50.262;-5.062;2023-07-13T09:57:46;2;2;
80838;PMS5003;70253;50.262;-5.062;2023-07-13T10:00:18;3;3;
80838;PMS5003;70253;50.262;-5.062;2023-07-13T10:02:35;2;2;
80838;PMS5003;70253;50.262;-5.062;2023-07-13T10:05:00;2;2;
80838;PMS5003;70253;50.262;-5.062;2023-07-13T10:07:25;4;2;
80838;PMS5003;70253;50.262;-5.062;2023-07-13T10:09:52;3;3;
80838;PMS5003;70253;50.262;-5.062;2023-07-13T10:12:16;2;2;
80838;PMS5003;70253;50.262;-5.062;2023-07-13T10:14:41;3;3;
80838;PMS5003;70253;50.262;-5.062;2023-07-13T10:17:08;2;1;
80838;PMS5003;70253;50.262;-5.062;2023-07-13T10:19:32;2;2;
80838;PMS5003;70253;50.262;-5.062;2023-07-13T10:21:58;1;1;
80838;PMS5003;70253;50.262;-5.062;2023-07-13T10:24:23;2;2;
80838;PMS5003;70253;50.262;-5.062;2023-07-13T10:26:50;4;4;
80838;PMS5003;70253;50.262;-5.062;2023-07-13T10:29:14;4;3;
80838;PMS5003;70253;50.262;-5.062;2023-07-13T10:31:39;3;2;
80838;PMS5003;70253;50.262;-5.062;2023-07-13T10:34:04;3;2;
80838;PMS5003;70253;50.262;-5.062;2023-07-13T10:36:32;3;3;
80838;PMS5003;70253;50.262;-5.062;2023-07-13T10:38:55;3;3;
80838;PMS5003;70253;50.262;-5.062;2023-07-13T10:41:20;2;2;
80838;PMS5003;70253;50.262;-5.062;2023-07-13T10:43:47;4;3;
80838;PMS5003;70253;50.262;-5.062;2023-07-13T10:46:12;3;3;
80838;PMS5003;70253;50.262;-5.062;2023-07-13T10:48:36;4;3;
80838;PMS5003;70253;50.262;-5.062;2023-07-13T10:51:04;3;3;
80838;PMS5003;70253;50.262;-5.062;2023-07-13T10:53:28;2;2;
80838;PMS5003;70253;50.262;-5.062;2023-07-13T10:55:58;2;2;
80838;PMS5003;70253;50.262;-5.062;2023-07-13T10:58:18;2;2;
80838;PMS5003;70253;50.262;-5.062;2023-07-13T11:00:46;3;3;
80838;PMS5003;70253;50.262;-5.062;2023-07-13T11:03:10;1;1;
80838;PMS5003;70253;50.262;-5.062;2023-07-13T11:05:34;5;3;
80838;PMS5003;70253;50.262;-5.062;2023-07-13T11:08:03;4;3;
80838;PMS5003;70253;50.262;-5.062;2023-07-13T11:12:51;5;4;
80838;PMS5003;70253;50.262;-5.062;2023-07-13T11:15:26;4;3;
80838;PMS5003;70253;50.262;-5.062;2023-07-13T11:20:18;3;2;
80838;PMS5003;70253;50.262;-5.062;2023-07-13T11:24:58;3;3;
80838;PMS5003;70253;50.262;-5.062;2023-07-13T11:27:26;3;3;
80838;PMS5003;70253;50.262;-5.062;2023-07-13T11:29:47;3;3;
80838;PMS5003;70253;50.262;-5.062;2023-07-13T11:34:38;3;3;
80838;PMS5003;70253;50.262;-5.062;2023-07-13T11:37:08;3;3;
80838;PMS5003;70253;50.262;-5.062;2023-07-13T11:39:29;2;2;
80838;PMS5003;70253;50.262;-5.062;2023-07-13T11:41:55;4;4;
80838;PMS5003;70253;50.262;-5.062;2023-07-13T11:44:20;3;3;
80838;PMS5003;70253;50.262;-5.062;2023-07-13T11:46:46;3;2;
80838;PMS5003;70253;50.262;-5.062;2023-07-13T11:49:13;1;1;
80838;PMS5003;70253;50.262;-5.062;2023-07-13T11:51:36;3;3;
80838;PMS5003;70253;50.262;-5.062;2023-07-13T11:54:03;2;2;
80838;PMS5003;70253;50.262;-5.062;2023-07-13T11:56:27;3;2;
80838;PMS5003;70253;50.262;-5.062;2023-07-13T11:58:52;3;3;
80838;PMS5003;70253;50.262;-5.062;2023-07-13T12:01:19;2;2;
80838;PMS5003;70253;50.262;-5.062;2023-07-13T12:03:43;3;3;
80838;PMS5003;70253;50.262;-5.062;2023-07-13T12:08:37;3;3;
80838;PMS5003;70253;50.262;-5.062;2023-07-13T12:11:00;7;3;
80838;PMS5003;70253;50.262;-5.062;2023-07-13T12:13:25;3;3;
80838;PMS5003;70253;50.262;-5.062;2023-07-13T12:15:50;4;3;
80838;PMS5003;70253;50.262;-5.062;2023-07-13T12:18:17;2;2;
80838;PMS5003;70253;50.262;-5.062;2023-07-13T12:20:41;2;1;
80838;PMS5003;70253;50.262;-5.062;2023-07-13T12:25:31;3;3;
80838;PMS5003;70253;50.262;-5.062;2023-07-13T12:27:57;3;3;
80838;PMS5003;70253;50.262;-5.062;2023-07-13T12:30:25;3;3;
80838;PMS5003;70253;50.262;-5.062;2023-07-13T12:35:15;2;2;
80838;PMS5003;70253;50.262;-5.062;2023-07-13T12:37:38;3;3;
80838;PMS5003;70253;50.262;-5.062;2023-07-13T12:40:12;2;2;
80838;PMS5003;70253;50.262;-5.062;2023-07-13T12:42:31;3;3;
80838;PMS5003;70253;50.262;-5.062;2023-07-13T12:44:57;4;3;
80838;PMS5003;70253;50.262;-5.062;2023-07-13T12:47:20;3;3;
80838;PMS5003;70253;50.262;-5.062;2023-07-13T12:49:48;3;2;
80838;PMS5003;70253;50.262;-5.062;2023-07-13T12:52:14;4;4;
80838;PMS5003;70253;50.262;-5.062;2023-07-13T12:54:38;3;2;
80838;PMS5003;70253;50.262;-5.062;2023-07-13T12:57:01;2;2;
80838;PMS5003;70253;50.262;-5.062;2023-07-13T12:59:29;3;3;
80838;PMS5003;70253;50.262;-5.062;2023-07-13T13:01:53;4;4;
80838;PMS5003;70253;50.262;-5.062;2023-07-13T13:04:18;6;4;
80838;PMS5003;70253;50.262;-5.062;2023-07-13T13:06:43;3;3;
80838;PMS5003;70253;50.262;-5.062;2023-07-13T13:09:11;4;4;
80838;PMS5003;70253;50.262;-5.062;2023-07-13T13:11:34;5;4;
80838;PMS5003;70253;50.262;-5.062;2023-07-13T13:13:59;3;3;
80838;PMS5003;70253;50.262;-5.062;2023-07-13T13:16:33;3;3;
80838;PMS5003;70253;50.262;-5.062;2023-07-13T13:18:50;3;2;
80838;PMS5003;70253;50.262;-5.062;2023-07-13T13:21:15;4;3;
80838;PMS5003;70253;50.262;-5.062;2023-07-13T13:23:40;5;4;
80838;PMS5003;70253;50.262;-5.062;2023-07-13T13:26:10;6;4;
80838;PMS5003;70253;50.262;-5.062;2023-07-13T13:28:31;3;3;
80838;PMS5003;70253;50.262;-5.062;2023-07-13T13:30:57;5;4;
80838;PMS5003;70253;50.262;-5.062;2023-07-13T13:33:22;3;3;
80838;PMS5003;70253;50.262;-5.062;2023-07-13T13:35:47;4;4;
80838;PMS5003;70253;50.262;-5.062;2023-07-13T13:38:13;3;3;
80838;PMS5003;70253;50.262;-5.062;2023-07-13T13:40:39;5;4;
80838;PMS5003;70253;50.262;-5.062;2023-07-13T13:45:29;4;3;
80838;PMS5003;70253;50.262;-5.062;2023-07-13T13:47:54;7;5;
80838;PMS5003;70253;50.262;-5.062;2023-07-13T13:50:21;7;6;
80838;PMS5003;70253;50.262;-5.062;2023-07-13T13:52:46;5;3;
80838;PMS5003;70253;50.262;-5.062;2023-07-13T13:55:12;4;3;
80838;PMS5003;70253;50.262;-5.062;2023-07-13T13:57:36;5;3;
80838;PMS5003;70253;50.262;-5.062;2023-07-13T14:00:02;3;3;
80838;PMS5003;70253;50.262;-5.062;2023-07-13T14:02:27;6;5;
80838;PMS5003;70253;50.262;-5.062;2023-07-13T14:04:55;6;5;
80838;PMS5003;70253;50.262;-5.062;2023-07-13T14:07:18;3;2;
80838;PMS5003;70253;50.262;-5.062;2023-07-13T14:09:43;5;5;
80838;PMS5003;70253;50.262;-5.062;2023-07-13T14:12:09;5;5;
80838;PMS5003;70253;50.262;-5.062;2023-07-13T14:14:34;6;5;
80838;PMS5003;70253;50.262;-5.062;2023-07-13T14:16:59;2;2;
80838;PMS5003;70253;50.262;-5.062;2023-07-13T14:19:24;3;3;
80838;PMS5003;70253;50.262;-5.062;2023-07-13T14:21:50;5;4;
80838;PMS5003;70253;50.262;-5.062;2023-07-13T14:24:15;3;3;
80838;PMS5003;70253;50.262;-5.062;2023-07-13T14:26:41;4;4;
80838;PMS5003;70253;50.262;-5.062;2023-07-13T15:06:29;0;0;
80838;PMS5003;70253;50.262;-5.062;2023-07-13T15:08:50;3;3;
80838;PMS5003;70253;50.262;-5.062;2023-07-13T15:11:16;3;3;
80838;PMS5003;70253;50.262;-5.062;2023-07-13T15:13:41;4;4;
80838;PMS5003;70253;50.262;-5.062;2023-07-13T15:15:10;2;2;
80838;PMS5003;70253;50.262;-5.062;2023-07-13T15:17:36;3;2;
80838;PMS5003;70253;50.262;-5.062;2023-07-13T15:20:00;2;2;
